Date,TemperatureHighF,TemperatureAvgF,TemperatureLowF,DewpointHighF,DewpointAvgF,DewpointLowF,HumidityHigh,HumidityAvg,HumidityLow,PressureMaxIn,PressureMinIn,WindSpeedMaxMPH,WindSpeedAvgMPH,GustSpeedMaxMPH,PrecipitationSumIn
2012-1-1,35,26,19,31,18,9,87,71,61,29.59,29.06,24,9,24,0.01
2012-1-2,20,16,11,13,6,3,73,64,54,29.78,29.57,15,4,15,0.00
2012-1-3,28,19,9,17,11,3,78,71,56,29.72,29.13,10,1,10,0.00
2012-1-4,38,28,21,28,22,15,83,77,65,29.37,29.17,8,1,8,0.00
2012-1-5,46,35,20,35,28,16,88,77,66,29.23,28.88,4,1,4,0.01
2012-1-6,45,41,37,32,29,26,73,64,53,29.15,28.90,13,5,13,0.00
2012-1-7,37,30,23,28,22,16,81,71,62,29.48,29.15,14,2,14,0.00
2012-1-8,40,29,17,29,22,12,84,76,62,29.56,29.32,6,1,6,0.00
2012-1-9,48,38,29,31,27,22,76,64,50,29.32,29.15,11,3,11,0.00
2012-1-10,50,36,24,35,27,19,84,73,54,29.25,28.91,8,1,8,0.00
2012-1-11,35,24,13,29,18,4,83,75,68,29.17,28.89,10,2,10,0.02
2012-1-12,14,12,10,7,4,2,74,70,64,29.18,29.10,13,4,13,0.00
2012-1-13,17,12,8,8,5,1,78,73,67,29.29,29.18,7,1,8,0.00
2012-1-14,22,16,5,17,10,0,84,77,72,29.38,29.28,9,1,9,0.00
2012-1-15,38,28,20,27,22,16,90,77,62,29.39,29.00,15,4,15,0.00
2012-1-16,31,25,17,25,17,8,81,70,54,29.31,29.00,11,2,11,0.00
2012-1-17,17,11,3,9,2,-5,77,66,51,29.55,29.28,11,3,11,0.00
2012-1-18,26,11,-2,18,4,-8,82,71,61,29.50,28.96,14,2,14,0.00
2012-1-19,4,-4,-12,-8,-14,-20,68,63,56,29.47,29.36,8,1,8,0.00
2012-1-20,16,6,-6,7,-2,-16,75,69,64,29.52,29.39,3,0,3,0.00
2012-1-21,22,10,-8,18,3,-14,83,75,63,29.52,29.05,15,3,15,0.00
2012-1-22,25,24,22,23,20,17,91,85,78,29.05,28.82,12,3,12,0.00
2012-1-23,30,25,21,24,20,16,90,82,76,29.21,28.81,12,4,12,0.00
2012-1-24,30,21,12,22,15,8,84,79,71,29.57,29.20,8,2,8,0.00
2012-1-25,36,29,24,28,24,19,87,82,71,29.54,29.12,5,2,5,0.01
2012-1-26,41,32,24,31,25,18,88,77,64,29.11,28.97,10,2,10,0.07
2012-1-27,36,26,18,32,20,12,88,78,65,29.21,28.98,8,3,8,0.02
2012-1-28,29,24,18,18,15,13,78,71,61,29.27,29.18,12,3,12,0.00
2012-1-29,23,17,10,16,8,4,78,69,58,29.47,29.24,8,2,8,0.00
2012-1-30,43,31,20,30,22,12,80,72,60,29.24,28.91,9,2,9,0.00
2012-1-31,40,34,30,33,28,26,85,81,76,29.28,28.85,11,3,11,0.00
2012-2-1,37,34,31,33,30,27,90,86,82,29.39,29.27,6,1,6,0.00
2012-2-2,37,33,30,33,30,28,93,89,84,29.70,29.39,6,1,6,0.00
2012-2-3,36,31,26,30,28,24,93,88,79,29.78,29.70,7,2,7,0.00
2012-2-4,36,29,24,31,26,21,92,88,80,29.75,29.60,8,1,8,0.00
2012-2-5,33,30,28,28,26,24,91,86,81,29.65,29.46,6,2,6,0.00
2012-2-6,44,33,24,34,26,20,91,78,57,29.61,29.34,12,2,12,0.00
2012-2-7,31,23,14,23,12,2,72,62,46,29.83,29.61,8,2,10,0.00
2012-2-8,31,20,10,12,7,1,70,58,44,29.78,29.51,6,2,8,0.00
2012-2-9,38,26,15,25,16,5,76,63,44,29.51,29.15,13,2,13,0.00
2012-2-10,23,10,2,5,-5,-10,66,51,36,29.83,29.31,13,4,13,0.00
2012-2-11,19,9,0,-2,-7,-13,57,48,36,29.88,29.75,12,4,12,0.00
2012-2-12,30,18,7,7,2,-3,67,51,32,29.76,29.35,7,2,7,0.00
2012-2-13,35,26,16,23,14,3,77,61,48,29.35,29.02,8,1,8,0.00
2012-2-14,38,31,24,27,24,20,84,75,61,29.07,28.99,9,2,9,0.00
2012-2-15,44,34,21,31,26,17,85,76,53,29.31,29.06,5,1,5,0.00
2012-2-16,41,31,25,26,20,16,82,65,45,29.36,29.31,10,1,10,0.00
2012-2-17,41,32,25,28,22,13,76,64,52,29.45,29.23,10,3,10,0.00
2012-2-18,36,27,17,20,15,10,75,63,49,29.54,29.44,8,1,8,0.00
2012-2-19,43,30,16,25,19,9,82,63,43,29.44,29.31,9,1,9,0.00
2012-2-20,45,35,27,30,24,20,90,66,41,29.36,28.93,18,6,18,0.00
2012-2-21,40,34,28,33,28,21,89,80,72,28.93,28.79,15,5,15,0.12
2012-2-22,38,29,19,26,21,14,82,72,58,28.84,28.71,7,2,7,0.00
2012-2-23,38,32,28,27,23,20,81,72,61,29.02,28.73,9,1,9,0.02
2012-2-24,30,24,15,23,14,6,80,65,52,29.36,29.01,14,5,14,0.00
2012-2-25,28,19,10,18,10,4,75,68,58,29.52,29.33,9,2,9,0.00
2012-2-26,36,30,26,30,22,16,81,71,60,29.34,28.90,21,6,21,0.00
2012-2-27,30,26,22,21,16,13,79,69,59,29.69,29.28,16,4,16,0.00
2012-2-28,35,30,22,29,24,15,92,80,71,29.64,28.95,13,4,13,0.03
2012-2-29,35,33,31,31,30,27,95,90,81,29.01,28.58,14,5,14,0.11
2012-3-1,32,32,32,28,28,27,86,84,82,29.07,29.01,5,2,5,0.00
2012-3-20,58,58,56,53,52,52,84,83,81,29.24,29.22,1,0,1,0.00
2012-3-22,64,60,54,60,57,52,93,90,83,29.38,29.26,9,3,9,0.18
2012-3-23,73,62,53,63,57,50,94,85,65,29.28,29.18,8,1,8,0.01
2012-3-24,71,57,48,58,51,42,95,82,60,29.37,29.21,10,2,10,0.00
2012-3-25,56,46,36,41,32,25,86,62,36,29.54,29.37,11,3,11,0.00
2012-3-26,46,40,34,30,28,22,85,64,44,29.59,29.19,20,8,20,0.17
2012-3-27,67,53,42,50,40,29,75,62,43,29.20,28.85,20,8,20,0.01
2012-3-28,53,46,39,38,35,31,74,65,53,29.37,29.10,14,3,14,0.00
2012-3-29,59,48,36,42,36,30,81,64,46,29.39,29.09,15,5,15,0.02
2012-3-30,58,48,40,46,41,36,85,77,62,29.18,29.08,8,3,8,0.01
2012-3-31,53,47,40,46,42,37,92,84,77,29.17,29.03,11,3,11,0.00
2012-4-1,65,55,46,47,44,39,90,68,43,29.05,28.89,16,6,16,0.00
2012-4-2,69,58,48,48,41,34,64,52,42,29.15,28.94,19,6,19,0.00
2012-4-3,63,53,46,41,34,23,82,52,23,29.41,29.13,16,4,16,0.00
2012-4-4,63,52,40,30,26,20,52,37,23,29.41,29.24,11,3,11,0.00
2012-4-5,60,48,35,32,26,20,63,44,28,29.48,29.31,12,4,12,0.00
2012-4-6,60,48,32,32,27,22,70,46,27,29.56,29.36,14,4,14,0.00
2012-4-7,59,50,46,48,34,25,85,55,41,29.46,29.30,16,3,19,0.05
2012-4-8,62,50,36,34,25,20,60,38,24,29.50,29.34,16,4,16,0.00
2012-4-9,47,40,30,23,20,14,52,43,37,29.47,29.35,16,5,16,0.00
2012-4-10,41,34,28,22,16,14,61,48,35,29.60,29.46,12,3,12,0.00
2012-4-11,55,40,25,29,21,13,63,47,34,29.68,29.50,6,1,6,0.00
2012-4-12,64,49,27,35,26,20,80,45,24,29.50,29.31,13,2,13,0.00
2012-4-13,53,52,50,49,40,28,89,68,38,29.32,29.01,14,3,14,0.01
2012-4-14,76,62,46,54,46,42,88,60,30,29.10,28.92,8,2,8,0.00
2012-4-15,61,53,45,54,49,43,93,88,65,28.92,28.55,16,5,16,0.94
2012-4-16,45,38,32,43,32,26,91,78,63,29.49,28.58,17,4,17,0.15
2012-4-17,59,46,28,46,35,24,89,68,51,29.58,29.26,13,2,13,0.06
2012-4-18,64,54,45,50,45,36,90,71,54,29.32,29.05,17,4,17,0.19
2012-4-19,49,44,40,36,31,19,75,60,42,29.36,29.24,11,3,11,0.00
2012-4-20,59,47,33,34,28,18,76,48,34,29.40,29.29,10,2,10,0.00
2012-4-21,51,46,43,43,38,33,91,74,60,29.29,29.19,12,2,12,0.27
2012-4-22,56,47,41,45,40,36,91,77,56,29.53,29.27,6,2,6,0.00
2012-4-23,67,52,34,46,38,30,88,61,37,29.51,29.15,7,1,7,0.00
2012-4-24,73,61,46,46,41,37,75,50,32,29.15,28.88,11,2,11,0.00
2012-4-25,73,62,48,53,46,38,74,58,46,29.11,28.85,14,4,14,0.05
2012-4-26,57,49,39,45,30,21,78,50,27,29.46,29.11,12,3,12,0.00
2012-4-27,57,49,36,32,26,22,67,43,29,29.49,29.31,15,4,15,0.00
2012-4-28,52,46,40,38,32,23,81,60,37,29.51,29.28,15,5,15,0.02
2012-4-29,63,52,45,45,40,36,79,64,51,29.52,29.31,12,3,12,0.00
2012-4-30,67,56,45,51,46,40,87,71,53,29.32,29.11,9,2,9,0.01
2012-5-1,74,61,53,60,53,47,89,77,61,29.11,28.85,16,3,16,1.32
2012-5-2,81,69,56,66,59,53,93,71,49,29.07,28.81,9,1,9,0.19
2012-5-3,75,65,56,62,56,53,90,75,54,29.23,29.03,6,2,6,0.30
2012-5-4,70,58,49,53,49,44,90,73,53,29.31,29.22,9,5,9,0.01
2012-5-5,60,55,51,54,51,44,93,86,76,29.39,29.19,13,4,13,0.55
2012-5-6,64,57,50,57,54,47,96,88,76,29.33,29.10,14,2,14,1.24
2012-5-7,75,60,49,56,47,39,92,64,43,29.30,29.18,16,4,16,0.00
2012-5-8,67,55,50,52,46,41,79,71,50,29.28,29.14,10,2,10,0.08
2012-5-9,73,58,46,54,42,38,86,58,37,29.37,29.24,7,1,7,0.00
2012-5-10,80,62,41,54,44,37,87,54,37,29.26,29.12,10,2,10,0.00
2012-5-11,66,57,51,46,44,40,81,64,45,29.53,29.10,12,2,12,0.07
2012-5-12,79,61,47,50,38,28,84,47,25,29.67,29.53,7,1,7,0.00
2012-5-13,81,64,44,52,39,34,81,43,22,29.57,29.33,9,2,9,0.00
2012-5-14,89,74,52,53,45,37,64,37,21,29.34,29.10,8,2,8,0.00
2012-5-15,73,65,54,48,40,34,58,41,29,29.38,29.09,11,2,11,0.00
2012-5-16,75,61,44,46,37,33,72,43,29,29.48,29.31,6,1,6,0.00
2012-5-17,84,68,49,53,46,37,69,47,32,29.32,29.02,14,3,14,0.00
2012-5-18,93,80,66,60,53,48,54,40,29,29.08,28.99,13,2,13,0.00
2012-5-19,88,77,58,64,58,52,89,54,42,29.19,29.05,8,1,8,0.99
2012-5-20,63,56,47,55,48,42,91,77,48,29.48,29.13,10,2,10,0.09
2012-5-21,80,65,46,56,46,40,89,55,33,29.54,29.37,7,1,7,0.00
2012-5-22,86,72,57,54,48,42,58,43,32,29.37,28.96,14,2,14,0.00
2012-5-23,85,69,61,62,54,47,90,60,41,28.97,28.68,13,2,13,2.04
2012-5-24,65,60,57,61,56,51,94,87,73,29.00,28.68,10,2,10,2.21
2012-5-25,82,65,51,56,50,44,85,62,33,29.41,29.00,6,1,6,0.00
2012-5-26,66,60,55,60,56,52,93,85,73,29.54,29.17,10,2,10,0.28
2012-5-27,90,76,61,74,67,58,93,74,57,29.18,28.87,13,3,13,0.54
2012-5-28,80,70,59,66,59,44,90,69,44,29.05,28.91,13,2,13,0.18
2012-5-29,71,59,51,52,45,39,69,59,47,29.24,29.02,12,3,12,0.00
2012-5-30,76,57,47,51,42,39,78,58,37,29.34,29.24,6,1,6,0.00
2012-5-31,76,59,49,54,43,38,80,57,38,29.36,29.28,6,1,6,0.00
2012-6-1,87,64,44,55,43,38,84,50,30,29.29,29.09,5,0,5,0.00
2012-6-2,89,68,50,56,47,40,78,49,30,29.09,29.05,10,1,10,0.00
2012-6-3,85,72,53,59,53,46,79,54,39,29.15,29.07,6,1,6,0.00
2012-6-4,85,72,57,62,56,50,83,60,40,29.25,29.14,4,1,4,0.00
2012-6-5,85,73,57,64,56,51,88,57,35,29.33,29.24,7,1,7,0.00
2012-6-6,87,74,60,65,58,53,82,59,38,29.36,29.30,10,2,10,0.00
2012-6-7,92,77,61,66,62,56,82,61,40,29.39,29.27,8,1,8,0.00
2012-6-8,90,80,69,67,61,58,68,54,42,29.27,29.03,8,1,8,0.00
2012-6-9,95,83,71,64,59,53,59,44,33,29.05,28.94,12,2,12,0.00
2012-6-10,97,78,63,68,61,54,85,57,36,29.08,28.87,10,2,10,1.74
2012-6-11,86,67,54,67,53,40,89,63,44,29.29,28.99,11,2,11,0.00
2012-6-12,72,61,49,49,44,41,78,55,38,29.48,29.29,8,0,8,0.00
2012-6-13,85,64,50,57,50,44,84,62,37,29.42,29.20,13,2,13,0.02
2012-6-14,64,63,62,52,51,50,69,66,63,29.23,29.15,8,2,8,0.00
2012-6-15,83,78,67,65,61,58,76,57,45,29.33,29.27,5,1,5,0.00
2012-6-16,87,73,63,71,62,51,85,69,52,29.28,29.09,8,1,8,0.03
2012-6-17,92,71,58,64,57,50,89,63,35,29.17,28.77,10,2,10,0.80
2012-6-18,90,78,65,77,64,59,92,66,36,28.97,28.71,8,1,9,0.00
2012-6-19,91,77,64,77,67,59,90,74,55,29.11,28.90,13,3,13,0.27
2012-6-20,83,75,62,70,65,58,88,72,62,29.18,28.92,11,2,11,0.15
2012-6-21,89,71,60,65,57,54,89,63,39,29.30,29.16,10,3,10,0.00
2012-6-22,101,74,57,67,56,51,87,56,33,29.34,29.25,10,2,10,0.00
2012-6-23,81,72,62,65,59,54,79,66,51,29.27,29.18,10,1,10,0.00
2012-6-24,84,73,63,68,61,55,88,68,49,29.41,29.21,8,2,8,0.00
2012-6-25,85,70,55,60,52,49,83,56,37,29.49,29.32,12,2,12,0.00
2012-6-26,83,71,55,62,54,50,85,57,37,29.35,29.05,13,3,13,0.00
2012-6-27,95,90,83,75,73,71,69,58,50,29.02,28.95,5,1,5,0.00
2012-6-29,99,88,74,68,61,56,66,43,31,29.17,29.08,7,2,7,0.00
2012-6-30,98,81,66,71,62,57,84,54,35,29.20,29.11,6,1,6,0.00
2012-7-1,96,83,66,74,69,60,83,63,48,29.23,29.14,8,2,8,0.00
2012-7-2,100,88,72,80,73,68,89,64,49,29.18,29.03,11,2,11,0.00
2012-7-3,94,87,80,78,75,68,83,68,59,29.15,29.02,5,1,6,1.14
2012-7-4,102,90,77,84,77,70,91,68,51,29.12,29.02,9,2,9,0.00
2012-7-5,92,82,73,77,68,61,83,65,42,29.27,29.12,10,2,10,0.02
2012-7-6,92,75,65,79,66,61,88,73,64,29.36,29.16,9,3,9,0.22
2012-7-7,83,74,62,66,61,57,90,65,41,29.45,29.35,8,2,8,0.00
2012-7-8,104,83,67,72,64,59,78,54,34,29.47,29.37,7,1,7,0.00
2012-7-9,91,78,64,64,58,52,74,52,35,29.46,29.41,7,2,7,0.00
2012-7-10,97,78,62,68,59,54,79,53,35,29.48,29.39,7,1,7,0.00
2012-7-11,99,79,61,69,60,56,85,55,36,29.45,29.33,6,1,6,0.00
2012-7-12,98,81,65,70,64,58,80,59,40,29.35,29.24,9,1,9,0.00
2012-7-13,91,76,68,74,66,62,89,73,50,29.30,29.21,9,2,9,0.12
2012-7-14,100,82,66,75,68,63,92,65,46,29.32,29.26,8,2,8,0.02
2012-7-15,100,85,70,76,70,65,86,62,42,29.35,29.23,7,1,7,0.00
2012-7-16,99,87,74,74,69,67,80,57,39,29.23,29.02,10,2,10,0.00
2012-7-17,89,79,72,74,70,65,85,74,59,29.21,29.05,8,2,8,0.00
2012-7-18,81,72,68,73,67,64,94,85,71,29.29,29.16,13,3,13,0.82
2012-7-19,83,74,65,71,67,63,94,79,62,29.36,29.25,6,1,6,0.00
2012-7-20,87,77,67,74,68,64,88,75,58,29.45,29.31,7,1,7,0.32
2012-7-21,86,76,69,76,70,67,93,83,67,29.39,29.28,7,1,9,0.87
2012-7-22,94,82,71,77,72,68,91,75,55,29.30,29.17,4,0,4,0.00
2012-7-23,109,84,74,79,70,66,91,66,34,29.28,29.19,7,1,7,0.00
2012-7-24,83,74,69,74,69,66,94,85,74,29.29,29.08,10,2,10,0.41
2012-7-25,91,81,73,77,72,69,89,75,62,29.08,28.90,8,2,8,0.00
2012-7-26,100,77,64,71,62,57,84,61,38,29.15,28.94,13,3,13,0.00
2012-7-27,80,71,61,67,61,56,90,70,55,29.40,29.14,5,1,5,0.00
2012-7-28,93,76,60,71,63,56,90,67,47,29.44,29.31,10,1,10,0.10
2012-7-29,87,76,67,72,68,64,91,77,57,29.34,29.23,8,1,8,0.72
2012-7-30,92,79,68,74,66,63,90,67,47,29.26,29.17,8,2,8,0.00
2012-7-31,89,78,65,70,64,60,85,63,44,29.33,29.24,5,1,5,0.00
2012-8-1,93,81,66,75,68,61,88,67,50,29.25,29.08,10,2,10,0.00
2012-8-2,98,81,70,72,65,60,79,59,43,29.20,29.12,6,1,6,0.00
2012-8-3,89,76,65,70,65,61,88,70,48,29.22,29.05,15,2,15,0.54
2012-8-4,80,71,65,66,61,56,91,73,50,29.27,29.03,11,3,11,0.09
2012-8-5,87,69,55,62,54,50,86,61,42,29.49,29.26,9,2,9,0.00
2012-8-6,88,75,57,67,61,52,85,64,42,29.41,29.23,6,1,6,0.00
2012-8-7,86,76,64,68,60,54,88,61,38,29.32,29.23,6,1,6,0.00
2012-8-8,74,66,62,66,60,56,90,81,71,29.34,29.25,8,2,8,0.03
2012-8-9,83,67,57,69,58,54,93,75,51,29.43,29.29,10,2,10,0.01
2012-8-10,75,65,54,57,53,48,89,67,47,29.49,29.39,7,2,7,0.00
2012-8-11,88,68,49,62,53,45,88,61,39,29.42,29.30,5,0,5,0.00
2012-8-12,79,68,60,63,58,54,85,71,53,29.32,29.28,5,1,5,0.00
2012-8-13,86,70,57,68,59,53,90,69,46,29.33,29.26,8,2,8,0.00
2012-8-14,81,73,64,59,57,54,80,59,44,29.28,29.18,4,0,4,0.00
2012-8-15,81,71,61,67,63,55,84,76,62,29.18,29.00,8,1,8,0.02
2012-8-16,77,65,55,64,53,45,83,66,50,29.33,29.08,13,4,13,0.01
2012-8-17,81,63,48,56,47,42,81,58,40,29.41,29.32,6,1,6,0.00
2012-8-18,84,67,51,62,52,46,88,62,34,29.34,29.24,6,1,6,0.09
2012-8-19,78,66,55,64,51,42,88,61,39,29.34,29.27,5,1,5,0.00
2012-8-20,85,66,47,58,48,41,84,56,32,29.34,29.28,6,1,6,0.00
2012-8-21,85,68,49,61,52,44,86,58,41,29.38,29.28,7,1,7,0.00
2012-8-22,82,72,66,66,61,59,83,71,49,29.25,29.17,9,2,9,0.10
2012-8-23,89,76,67,72,65,58,83,70,56,29.20,29.07,10,2,10,0.01
2012-8-24,88,78,63,73,67,58,88,70,56,29.15,29.09,8,1,8,0.00
2012-8-26,94,79,66,71,63,57,78,59,46,29.34,29.26,7,1,7,0.00
2012-8-27,91,74,57,64,58,51,87,60,40,29.44,29.34,6,1,6,0.00
2012-8-29,89,83,73,68,66,64,73,57,47,29.19,29.07,11,2,11,0.00
2012-8-30,90,78,70,67,64,59,72,61,47,29.25,29.01,8,2,8,0.00
2012-8-31,82,71,58,59,52,47,84,56,31,29.43,29.25,9,2,9,0.00
2012-9-1,82,70,57,59,53,48,73,57,38,29.45,29.31,10,2,10,0.00
2012-9-2,86,72,56,70,59,50,81,66,55,29.32,29.13,10,2,10,0.00
2012-9-3,89,79,68,68,59,51,71,53,33,29.23,29.16,5,1,5,0.00
2012-9-4,88,74,60,66,57,50,83,59,29,29.21,29.06,9,2,9,0.00
2012-9-5,84,72,63,57,54,46,73,54,32,29.17,29.02,10,3,10,0.00
2012-9-7,79,58,54,48,45,45,71,63,34,29.34,29.17,6,2,6,0.01
2012-9-8,81,61,47,55,47,42,86,63,35,29.35,29.11,16,4,16,0.00
2012-9-9,78,62,50,56,50,46,88,67,41,29.49,29.35,10,2,10,0.00
2012-9-12,65,57,55,53,49,48,79,75,64,29.52,29.49,3,1,3,0.00
2012-9-13,72,60,49,51,42,33,87,56,25,29.62,29.52,13,2,13,0.00
2012-9-14,72,59,46,45,40,36,71,51,32,29.64,29.54,6,1,6,0.00
2012-9-15,82,64,47,54,46,38,75,54,29,29.54,29.24,8,1,8,0.00
2012-9-16,86,69,61,58,51,42,73,54,35,29.29,29.17,7,2,7,0.00
2012-9-17,62,55,48,47,42,35,81,62,41,29.32,29.23,13,3,13,0.01
2012-9-18,61,51,41,45,36,33,79,58,38,29.34,29.19,9,1,9,0.00
2012-9-19,72,59,51,48,41,39,65,53,36,29.13,29.02,14,4,14,0.00
2012-9-20,64,56,48,41,38,34,67,52,33,29.21,29.13,14,4,14,0.00
2012-9-21,55,49,46,44,41,40,78,73,57,29.18,29.14,6,1,6,0.00
2012-9-24,60,59,57,42,40,38,51,49,45,29.08,29.04,5,1,5,0.00
2012-9-25,59,52,44,41,37,34,70,57,48,29.26,29.08,5,1,5,0.00
2012-9-26,61,49,38,40,36,32,81,61,39,29.51,29.26,8,1,8,0.00
2012-9-27,66,50,35,44,37,30,83,62,39,29.58,29.47,6,1,6,0.00
2012-9-28,76,57,39,49,41,34,83,60,31,29.52,29.38,5,0,5,0.00
2012-9-29,87,64,48,54,45,39,75,53,31,29.42,29.31,6,1,6,0.00
2012-9-30,81,60,45,50,44,38,80,57,33,29.34,29.17,6,1,6,0.00
2012-10-1,70,60,50,49,43,35,72,55,39,29.27,29.13,10,2,10,0.00
2012-10-2,70,57,39,47,40,32,75,54,40,29.28,29.13,7,1,7,0.00
2012-10-3,74,58,40,48,42,35,84,58,30,29.21,29.12,9,1,9,0.00
2012-10-4,62,49,42,46,36,31,74,61,48,29.43,29.03,20,7,20,0.00
2012-10-5,45,40,34,31,28,26,72,61,51,29.44,29.39,18,7,18,0.00
2012-10-6,46,38,34,31,27,23,79,65,45,29.57,29.43,11,3,11,0.00
2012-10-7,64,41,27,30,24,21,78,53,25,29.51,29.17,6,1,6,0.00
2012-10-8,62,47,36,42,32,22,67,56,47,29.15,28.88,10,2,10,0.01
2012-10-9,50,44,37,38,32,26,78,63,47,29.27,29.02,17,5,17,0.00
2012-10-10,58,44,30,35,28,22,77,55,41,29.39,29.11,10,2,10,0.00
2012-10-11,49,43,32,34,26,18,79,54,29,29.68,29.10,12,3,12,0.00
2012-10-12,51,39,23,28,21,17,78,52,30,29.72,29.31,13,1,13,0.00
2012-10-13,58,50,48,52,42,23,89,75,37,29.31,28.99,7,1,7,0.00
2012-10-14,57,50,42,45,40,35,92,71,45,29.19,29.04,14,3,14,0.02
2012-10-15,61,50,36,43,37,30,80,62,47,29.25,29.01,7,2,7,0.00
2012-10-16,68,59,49,50,45,40,82,61,51,29.01,28.68,11,2,11,0.00
2012-10-17,63,53,47,52,46,40,90,76,63,28.68,28.42,15,4,15,0.01
2012-10-18,53,48,45,45,42,40,87,81,72,28.70,28.47,8,1,8,0.00
2012-10-19,54,49,42,47,43,36,90,80,63,29.04,28.70,7,1,7,0.00
2012-10-20,55,45,33,46,39,29,90,81,69,29.12,29.03,8,1,8,0.00
2012-10-21,69,53,40,52,44,37,93,74,51,29.21,29.07,13,3,13,0.00
2012-10-22,57,52,46,47,44,41,83,75,67,29.28,29.18,13,5,13,0.00
2012-10-23,65,57,51,61,54,45,95,88,79,29.18,28.99,9,3,9,0.00
2012-10-24,60,55,47,56,51,42,90,86,78,29.17,29.07,10,2,10,0.08
2012-10-25,47,39,35,42,34,29,91,84,72,29.43,29.00,18,6,18,0.06
2012-10-26,41,37,32,29,26,23,80,67,54,29.63,29.42,14,5,14,0.00
2012-10-27,43,35,28,31,26,21,85,68,50,29.65,29.57,9,1,9,0.00
2012-10-28,45,36,26,31,26,20,83,69,54,29.62,29.56,7,1,7,0.00
2012-10-29,46,37,28,31,27,22,79,65,53,29.60,29.53,12,2,12,0.00
2012-10-30,48,36,28,34,24,15,79,62,42,29.54,29.36,9,2,9,0.00
2012-10-31,50,37,24,29,22,15,72,56,38,29.37,29.21,8,1,8,0.00
2012-11-1,44,39,30,33,27,21,75,62,51,29.36,29.21,14,3,14,0.00
2012-11-2,41,33,25,31,24,20,83,70,59,29.46,29.35,7,1,7,0.00
2012-11-3,40,36,32,32,28,25,83,71,65,29.52,29.45,6,1,6,0.00
2012-11-4,46,39,30,35,31,24,87,73,63,29.52,29.43,7,1,7,0.01
2012-11-5,43,38,34,38,33,29,89,82,77,29.49,29.21,7,2,7,0.00
2012-11-6,45,40,38,38,36,33,91,84,75,29.28,29.04,13,4,13,0.00
2012-11-7,48,42,37,39,35,31,85,77,62,29.40,29.28,4,1,6,0.00
2012-11-8,54,42,35,41,35,30,86,75,60,29.34,29.21,10,2,10,0.00
2012-11-9,49,42,36,40,37,33,90,83,72,29.35,29.24,14,5,14,0.00
2012-11-10,56,50,43,53,47,37,95,90,79,29.22,28.75,13,4,13,0.01
2012-11-11,53,33,23,51,28,15,93,80,71,29.21,28.77,13,6,13,0.00
2012-11-12,28,23,19,18,16,12,83,73,65,29.56,29.21,15,4,15,0.00
2012-11-13,44,30,15,29,21,11,85,71,51,29.63,29.54,9,1,9,0.00
2012-11-14,45,39,34,32,30,27,77,69,59,29.54,29.41,3,0,4,0.00
2012-11-15,48,38,27,37,27,12,81,64,45,29.75,29.39,12,2,12,0.00
2012-11-16,42,30,18,26,17,9,73,59,39,29.77,29.59,9,1,9,0.00
2012-11-17,56,45,30,39,34,22,81,67,50,29.59,29.45,13,3,13,0.00
2012-11-18,56,50,43,37,35,31,64,56,48,29.46,29.35,13,3,13,0.00
2012-11-19,59,49,40,42,37,32,78,63,53,29.37,29.29,9,2,9,0.00
2012-11-20,47,38,30,37,32,26,86,78,67,29.47,29.31,5,1,5,0.00
2012-11-21,57,49,37,45,38,31,79,68,57,29.31,28.96,12,1,12,0.00
2012-11-22,58,44,23,45,35,18,89,74,61,29.27,28.88,20,5,20,0.00
2012-11-23,27,21,13,18,14,7,83,73,63,29.66,29.27,21,7,21,0.00
2012-11-24,30,19,6,21,12,1,83,74,68,29.64,29.09,9,1,9,0.00
2012-11-25,33,29,20,24,21,10,78,72,63,29.46,29.09,14,4,14,0.00
2012-11-26,20,15,8,10,6,2,77,70,62,29.70,29.46,11,3,11,0.00
2012-11-27,37,25,16,27,17,9,79,72,66,29.60,29.36,9,1,9,0.00
2012-11-28,33,30,26,25,23,19,77,74,68,29.57,29.36,9,1,9,0.00
2012-11-29,36,30,23,27,24,19,87,79,69,29.42,29.34,13,4,13,0.00
2012-11-30,35,32,27,31,27,23,88,84,81,29.47,29.33,11,4,11,0.00
2012-12-1,46,39,34,41,36,31,92,87,82,29.34,29.01,12,3,12,0.00
2012-12-2,39,35,28,37,32,25,93,90,87,29.28,29.06,12,3,12,0.00
2012-12-3,54,46,39,51,41,31,95,84,68,29.19,28.83,17,4,17,0.01
2012-12-4,42,28,20,32,18,11,72,64,53,29.69,29.18,14,4,14,0.00
2012-12-5,40,27,15,27,16,9,81,65,51,29.69,29.13,18,5,18,0.00
2012-12-6,44,38,24,35,29,17,75,68,59,29.29,29.04,15,4,15,0.00
2012-12-7,33,26,22,25,20,16,81,78,71,29.35,29.29,5,1,5,0.00
2012-12-13,30,24,20,22,19,15,84,80,75,29.42,29.36,2,0,2,0.00
2012-12-14,34,24,12,28,19,9,88,82,73,29.42,29.08,7,2,7,0.00
2012-12-15,37,35,34,34,32,29,94,90,80,29.08,28.81,9,3,9,0.00
2012-12-16,35,26,20,32,23,16,91,87,82,29.10,28.85,10,4,10,0.00
2012-12-17,28,23,20,24,19,17,90,87,82,29.10,28.99,6,1,6,0.00
2012-12-18,29,24,21,25,21,19,92,88,83,29.11,28.94,7,2,7,0.00
2012-12-19,35,30,27,28,25,23,89,83,74,29.28,29.10,6,1,6,0.00
2012-12-20,28,21,11,21,15,6,85,78,72,29.37,29.16,17,6,17,0.00
2012-12-21,20,12,6,12,6,2,81,77,70,29.55,29.36,10,2,10,0.00
2012-12-22,27,16,6,19,10,1,84,78,66,29.47,29.24,9,1,9,0.00
2012-12-23,19,14,8,11,8,4,83,76,66,29.44,29.31,8,2,8,0.00
2012-12-24,16,13,4,10,5,-2,80,72,61,29.57,29.30,10,2,10,0.00
2012-12-25,11,5,-2,3,-2,-8,77,73,67,29.76,29.57,6,1,6,0.00
2012-12-26,16,9,4,6,2,-3,77,72,64,29.69,29.52,4,0,4,0.00
2012-12-27,21,14,6,15,9,0,87,79,72,29.54,29.43,5,1,5,0.00
2012-12-28,26,20,16,20,16,11,88,83,74,29.43,29.30,5,1,5,0.00
2012-12-29,21,15,4,16,9,-1,83,79,72,29.44,29.31,7,2,7,0.00
2012-12-30,22,11,0,15,5,-5,83,79,71,29.46,29.17,8,1,8,0.00
2012-12-31,18,10,1,13,2,-6,84,71,64,29.54,29.26,11,2,11,0.00
2013-1-1,21,8,-6,17,2,-12,84,76,67,29.54,29.29,6,1,6,0.00